Time,TemperatureF,DewpointF,PressureIn,WindDirection,WindDirectionDegrees,WindSpeedMPH,WindSpeedGustMPH,Humidity,HourlyPrecipIn,Conditions,Clouds,dailyrainin,SoftwareType,DateUTC
2013-01-10 00:03:00,53.4,19.4,17.72,East,84,4.9,4.9,26,0.00,,CLR,0.00,VWS V14.01,2013-01-10 07:03:00,
2013-01-10 00:08:00,53.4,19.4,17.72,East,79,5.8,5.8,26,0.00,,CLR,0.00,VWS V14.01,2013-01-10 07:08:00,
2013-01-10 00:14:00,53.4,19.4,17.72,ENE,68,4.9,4.9,26,0.00,,CLR,0.00,VWS V14.01,2013-01-10 07:14:00,
2013-01-10 00:19:00,53.2,19.3,17.72,ENE,58,3.1,3.1,26,0.00,,CLR,0.00,VWS V14.01,2013-01-10 07:19:00,
2013-01-10 00:24:00,53.6,18.6,17.72,ENE,74,5.4,5.4,25,0.00,,CLR,0.00,VWS V14.01,2013-01-10 07:24:00,
2013-01-10 00:30:00,54.1,19.1,17.72,ENE,71,4.0,4.0,25,0.00,,CLR,0.00,VWS V14.01,2013-01-10 07:30:00,
2013-01-10 00:35:00,54.7,19.6,17.72,East,80,5.8,5.8,25,0.00,,CLR,0.00,VWS V14.01,2013-01-10 07:35:00,
2013-01-10 00:40:00,54.9,19.7,17.72,East,86,5.4,5.4,25,0.00,,CLR,0.00,VWS V14.01,2013-01-10 07:40:00,
2013-01-10 00:46:00,55.2,18.1,17.72,East,89,4.0,4.0,23,0.00,,CLR,0.00,VWS V14.01,2013-01-10 07:46:00,
2013-01-10 00:51:00,55.8,17.5,17.72,East,100,4.0,4.0,22,0.00,,CLR,0.00,VWS V14.01,2013-01-10 07:51:00,
2013-01-10 00:56:00,55.9,17.7,17.72,East,83,5.8,5.8,22,0.00,,CLR,0.00,VWS V14.01,2013-01-10 07:56:00,
2013-01-10 01:01:00,55.9,17.7,17.72,East,79,10.5,10.5,22,0.00,,CLR,0.00,VWS V14.01,2013-01-10 08:01:00,
2013-01-10 01:07:00,55.9,17.7,17.72,East,92,10.1,10.1,22,0.00,,CLR,0.00,VWS V14.01,2013-01-10 08:07:00,
2013-01-10 01:12:00,58.5,19.8,17.72,NE,52,11.0,11.0,22,0.00,,CLR,0.00,VWS V14.01,2013-01-10 08:12:00,
2013-01-10 01:17:00,59.2,20.4,17.72,ESE,106,11.0,11.0,22,0.00,,CLR,0.00,VWS V14.01,2013-01-10 08:17:00,
2013-01-10 01:24:00,59.4,17.1,17.72,ESE,106,8.7,8.7,19,0.00,,CLR,0.00,VWS V14.01,2013-01-10 08:24:00,
2013-01-10 01:29:00,59.5,17.3,17.72,ESE,114,8.1,8.1,19,0.00,,CLR,0.00,VWS V14.01,2013-01-10 08:29:00,
2013-01-10 01:35:00,59.2,17.0,17.72,ESE,105,4.0,4.0,19,0.00,,CLR,0.00,VWS V14.01,2013-01-10 08:35:00,
2013-01-10 01:40:00,58.8,16.7,17.72,ESE,110,5.8,5.8,19,0.00,,CLR,0.00,VWS V14.01,2013-01-10 08:40:00,
2013-01-10 01:46:00,57.9,15.9,17.72,ESE,106,5.8,5.8,19,0.00,,CLR,0.00,VWS V14.01,2013-01-10 08:46:00,
2013-01-10 01:51:00,57.2,18.7,17.72,East,99,5.4,5.4,22,0.00,,CLR,0.00,VWS V14.01,2013-01-10 08:51:00,
2013-01-10 01:56:00,57.2,18.7,17.72,ESE,102,5.8,5.8,22,0.00,,CLR,0.00,VWS V14.01,2013-01-10 08:56:00,
2013-01-10 02:02:00,56.7,18.3,17.72,East,83,5.4,5.4,22,0.00,,CLR,0.00,VWS V14.01,2013-01-10 09:02:00,
2013-01-10 02:07:00,56.7,18.3,17.72,East,85,4.0,4.0,22,0.00,,CLR,0.00,VWS V14.01,2013-01-10 09:07:00,
2013-01-10 02:13:00,56.7,18.3,17.72,ESE,105,5.4,5.4,22,0.00,,CLR,0.00,VWS V14.01,2013-01-10 09:13:00,
2013-01-10 02:18:00,56.7,18.3,17.72,ESE,103,5.4,5.4,22,0.00,,CLR,0.00,VWS V14.01,2013-01-10 09:18:00,
2013-01-10 02:24:00,57.2,18.7,17.72,East,95,6.3,8.1,22,0.00,,CLR,0.00,VWS V14.01,2013-01-10 09:24:00,
2013-01-10 02:29:00,57.2,18.7,17.72,ENE,76,8.1,8.1,22,0.00,,CLR,0.00,VWS V14.01,2013-01-10 09:29:00,
2013-01-10 02:34:00,57.6,19.0,17.72,East,82,8.1,8.1,22,0.00,,CLR,0.00,VWS V14.01,2013-01-10 09:34:00,
2013-01-10 02:40:00,57.9,19.3,17.72,NE,52,5.4,6.3,22,0.00,,CLR,0.00,VWS V14.01,2013-01-10 09:40:00,
2013-01-10 02:45:00,57.9,19.3,17.72,ENE,69,4.0,4.0,22,0.00,,CLR,0.00,VWS V14.01,2013-01-10 09:45:00,
2013-01-10 02:52:00,57.7,15.8,17.72,East,79,6.3,6.3,19,0.00,,CLR,0.00,VWS V14.01,2013-01-10 09:52:00,
2013-01-10 02:57:00,57.7,15.8,17.72,NE,47,11.0,11.0,19,0.00,,CLR,0.00,VWS V14.01,2013-01-10 09:57:00,
2013-01-10 03:03:00,57.9,15.9,17.72,ENE,76,8.7,8.7,19,0.00,,CLR,0.00,VWS V14.01,2013-01-10 10:03:00,
2013-01-10 03:08:00,58.1,16.1,17.72,NE,47,6.3,8.3,19,0.00,,CLR,0.00,VWS V14.01,2013-01-10 10:08:00,
2013-01-10 03:13:00,58.1,16.1,17.72,ENE,64,5.4,6.3,19,0.00,,CLR,0.00,VWS V14.01,2013-01-10 10:13:00,
2013-01-10 03:18:00,58.1,16.1,17.72,ENE,73,8.3,8.3,19,0.00,,CLR,0.00,VWS V14.01,2013-01-10 10:18:00,
2013-01-10 03:24:00,58.1,16.1,17.72,ENE,63,5.8,8.1,19,0.00,,CLR,0.00,VWS V14.01,2013-01-10 10:24:00,
2013-01-10 03:29:00,58.5,16.4,17.72,ENE,58,5.8,7.6,19,0.00,,CLR,0.00,VWS V14.01,2013-01-10 10:29:00,
2013-01-10 03:34:00,58.5,16.4,17.72,NE,49,8.7,8.7,19,0.00,,CLR,0.00,VWS V14.01,2013-01-10 10:34:00,
2013-01-10 03:40:00,58.5,16.4,17.72,ENE,70,6.3,6.3,19,0.00,,CLR,0.00,VWS V14.01,2013-01-10 10:40:00,
2013-01-10 03:45:00,58.3,16.2,17.72,ENE,65,5.8,5.8,19,0.00,,CLR,0.00,VWS V14.01,2013-01-10 10:45:00,
2013-01-10 03:51:00,58.3,16.2,17.72,ENE,65,6.3,6.3,19,0.00,,CLR,0.00,VWS V14.01,2013-01-10 10:51:00,
2013-01-10 03:56:00,58.1,16.1,17.72,ENE,69,3.6,6.3,19,0.00,,CLR,0.00,VWS V14.01,2013-01-10 10:56:00,
2013-01-10 04:02:00,58.1,16.1,17.72,NE,56,4.9,4.9,19,0.00,,CLR,0.00,VWS V14.01,2013-01-10 11:02:00,
2013-01-10 04:08:00,57.6,15.6,17.72,ENE,64,3.6,3.6,19,0.00,,CLR,0.00,VWS V14.01,2013-01-10 11:08:00,
2013-01-10 04:13:00,57.6,15.6,17.72,NE,51,3.6,3.6,19,0.00,,CLR,0.00,VWS V14.01,2013-01-10 11:13:00,
2013-01-10 04:19:00,57.2,15.3,17.72,ENE,62,6.3,6.3,19,0.00,,CLR,0.00,VWS V14.01,2013-01-10 11:19:00,
2013-01-10 04:25:00,57.2,15.3,17.72,ENE,70,10.5,10.5,19,0.00,,CLR,0.00,VWS V14.01,2013-01-10 11:25:00,
2013-01-10 04:31:00,57.6,15.6,17.72,NE,46,8.7,9.2,19,0.00,,CLR,0.00,VWS V14.01,2013-01-10 11:31:00,
2013-01-10 04:37:00,57.7,15.8,17.72,ENE,60,8.1,8.3,19,0.00,,CLR,0.00,VWS V14.01,2013-01-10 11:37:00,
2013-01-10 04:42:00,57.7,15.8,17.72,ENE,59,13.2,13.2,19,0.00,,CLR,0.00,VWS V14.01,2013-01-10 11:42:00,
2013-01-10 04:48:00,58.1,16.1,17.72,NE,44,8.3,8.3,19,0.00,,CLR,0.00,VWS V14.01,2013-01-10 11:48:00,
2013-01-10 04:53:00,58.1,16.1,17.72,NE,42,8.7,8.7,19,0.00,,CLR,0.00,VWS V14.01,2013-01-10 11:53:00,
2013-01-10 04:58:00,58.8,16.7,17.72,NE,52,8.3,8.3,19,0.00,,CLR,0.00,VWS V14.01,2013-01-10 11:58:00,
2013-01-10 05:05:00,58.8,16.7,17.72,ENE,60,8.3,8.3,19,0.00,,CLR,0.00,VWS V14.01,2013-01-10 12:05:00,
2013-01-10 05:10:00,59.2,17.0,17.72,ENE,73,8.7,8.7,19,0.00,,CLR,0.00,VWS V14.01,2013-01-10 12:10:00,
2013-01-10 05:16:00,59.4,17.1,17.72,ENE,66,8.3,8.3,19,0.00,,CLR,0.00,VWS V14.01,2013-01-10 12:16:00,
2013-01-10 05:23:00,59.4,17.1,17.72,East,86,5.4,5.4,19,0.00,,CLR,0.00,VWS V14.01,2013-01-10 12:23:00,
2013-01-10 05:28:00,59.0,16.8,17.72,ESE,116,10.5,10.5,19,0.00,,CLR,0.00,VWS V14.01,2013-01-10 12:28:00,
2013-01-10 05:33:00,58.6,16.5,17.72,ENE,75,7.2,7.2,19,0.00,,CLR,0.00,VWS V14.01,2013-01-10 12:33:00,
2013-01-10 05:39:00,58.1,16.1,17.72,ENE,76,8.7,8.7,19,0.00,,CLR,0.00,VWS V14.01,2013-01-10 12:39:00,
2013-01-10 05:44:00,57.6,15.6,17.72,ENE,65,8.3,8.3,19,0.00,,CLR,0.00,VWS V14.01,2013-01-10 12:44:00,
2013-01-10 05:49:00,57.6,15.6,17.72,East,81,10.5,10.5,19,0.00,,CLR,0.00,VWS V14.01,2013-01-10 12:49:00,
2013-01-10 05:54:00,56.7,16.1,17.72,East,81,10.5,10.5,20,0.00,,CLR,0.00,VWS V14.01,2013-01-10 12:54:00,
2013-01-10 06:00:00,56.7,16.1,17.72,ENE,71,11.9,11.9,20,0.00,,CLR,0.00,VWS V14.01,2013-01-10 13:00:00,
2013-01-10 06:05:00,56.5,15.9,17.72,East,91,5.8,5.8,20,0.00,,CLR,0.00,VWS V14.01,2013-01-10 13:05:00,
2013-01-10 06:11:00,56.5,15.9,17.72,East,85,4.0,4.0,20,0.00,,CLR,0.00,VWS V14.01,2013-01-10 13:11:00,
2013-01-10 06:16:00,56.7,16.1,17.72,NE,48,8.1,8.1,20,0.00,,CLR,0.00,VWS V14.01,2013-01-10 13:16:00,
2013-01-10 06:22:00,57.2,15.3,17.72,East,81,8.7,8.7,19,0.00,,CLR,0.00,VWS V14.01,2013-01-10 13:22:00,
2013-01-10 06:28:00,57.6,15.6,17.72,East,80,8.1,8.1,19,0.00,,CLR,0.00,VWS V14.01,2013-01-10 13:28:00,
2013-01-10 06:34:00,57.7,15.8,17.72,ENE,65,12.8,12.8,19,0.00,,CLR,0.00,VWS V14.01,2013-01-10 13:34:00,
2013-01-10 06:40:00,57.7,15.8,17.72,East,97,10.5,10.5,19,0.00,,CLR,0.00,VWS V14.01,2013-01-10 13:40:00,
2013-01-10 06:45:00,57.9,15.9,17.72,East,90,6.3,7.6,19,0.00,,CLR,0.00,VWS V14.01,2013-01-10 13:45:00,
2013-01-10 06:50:00,58.1,16.1,17.72,East,90,6.3,6.3,19,0.00,,CLR,0.00,VWS V14.01,2013-01-10 13:50:00,
2013-01-10 06:57:00,58.1,16.1,17.72,ENE,64,9.6,9.6,19,0.00,,CLR,0.00,VWS V14.01,2013-01-10 13:57:00,
2013-01-10 07:02:00,57.9,15.9,17.72,ENE,58,5.4,5.4,19,0.00,,CLR,0.00,VWS V14.01,2013-01-10 14:02:00,
2013-01-10 07:08:00,57.9,15.9,17.72,ENE,61,8.7,11.0,19,0.00,,CLR,0.00,VWS V14.01,2013-01-10 14:08:00,
2013-01-10 07:13:00,57.9,15.9,17.72,East,89,7.6,8.7,19,0.00,,CLR,0.00,VWS V14.01,2013-01-10 14:13:00,
2013-01-10 07:18:00,57.9,15.9,17.72,East,89,7.6,7.6,19,0.00,,CLR,0.00,VWS V14.01,2013-01-10 14:18:00,
2013-01-10 07:25:00,57.9,15.9,17.72,NE,56,5.4,6.7,19,0.00,,CLR,0.00,VWS V14.01,2013-01-10 14:25:00,
2013-01-10 07:30:00,57.9,15.9,17.72,ENE,69,4.9,4.9,19,0.00,,CLR,0.00,VWS V14.01,2013-01-10 14:30:00,
2013-01-10 07:35:00,57.9,13.4,17.72,East,87,5.4,5.4,17,0.00,,CLR,0.00,VWS V14.01,2013-01-10 14:35:00,
2013-01-10 07:40:00,58.1,13.5,17.72,East,87,5.4,5.4,17,0.00,,CLR,0.00,VWS V14.01,2013-01-10 14:40:00,
2013-01-10 07:45:00,59.0,14.3,17.72,ENE,75,9.6,9.6,17,0.00,,CLR,0.00,VWS V14.01,2013-01-10 14:45:00,
2013-01-10 07:50:00,59.4,14.6,17.72,East,95,8.7,8.7,17,0.00,,CLR,0.00,VWS V14.01,2013-01-10 14:50:00,
2013-01-10 07:56:00,59.4,14.6,17.72,East,97,8.1,8.1,17,0.00,,CLR,0.00,VWS V14.01,2013-01-10 14:56:00,
2013-01-10 08:02:00,59.7,14.9,17.72,East,87,8.1,10.1,17,0.00,,CLR,0.00,VWS V14.01,2013-01-10 15:02:00,
2013-01-10 08:07:00,59.7,14.9,17.72,East,87,8.1,8.1,17,0.00,,CLR,0.00,VWS V14.01,2013-01-10 15:07:00,
2013-01-10 08:14:00,59.7,14.9,17.72,East,87,12.8,12.8,17,0.00,,CLR,0.00,VWS V14.01,2013-01-10 15:14:00,
2013-01-10 08:19:00,59.9,15.0,17.72,ENE,75,8.1,11.0,17,0.00,,CLR,0.00,VWS V14.01,2013-01-10 15:19:00,
2013-01-10 08:24:00,59.9,15.0,17.72,East,92,10.5,12.3,17,0.00,,CLR,0.00,VWS V14.01,2013-01-10 15:24:00,
2013-01-10 08:29:00,59.9,15.0,17.72,ENE,75,15.9,15.9,17,0.00,,CLR,0.00,VWS V14.01,2013-01-10 15:29:00,
2013-01-10 08:35:00,59.9,15.0,17.72,East,88,8.7,8.7,17,0.00,,CLR,0.00,VWS V14.01,2013-01-10 15:35:00,
2013-01-10 08:40:00,59.7,14.9,17.72,East,85,8.3,12.8,17,0.00,,CLR,0.00,VWS V14.01,2013-01-10 15:40:00,
2013-01-10 08:46:00,59.7,14.9,17.72,ENE,58,8.7,8.7,17,0.00,,CLR,0.00,VWS V14.01,2013-01-10 15:46:00,
2013-01-10 08:51:00,59.7,14.9,17.72,East,86,5.8,5.8,17,0.00,,CLR,0.00,VWS V14.01,2013-01-10 15:51:00,
2013-01-10 08:57:00,59.7,14.9,17.72,ENE,64,8.7,8.7,17,0.00,,CLR,0.00,VWS V14.01,2013-01-10 15:57:00,
2013-01-10 09:02:00,59.7,14.9,17.72,ENE,72,5.8,13.2,17,0.00,,CLR,0.00,VWS V14.01,2013-01-10 16:02:00,
2013-01-10 09:07:00,59.7,14.9,17.72,East,96,10.5,12.8,17,0.00,,CLR,0.00,VWS V14.01,2013-01-10 16:07:00,
2013-01-10 09:13:00,59.7,14.9,17.72,ENE,72,10.1,10.1,17,0.00,,CLR,0.00,VWS V14.01,2013-01-10 16:13:00,
2013-01-10 09:18:00,59.7,14.9,17.72,East,98,13.2,13.2,17,0.00,,CLR,0.00,VWS V14.01,2013-01-10 16:18:00,
2013-01-10 09:23:00,59.7,14.9,17.72,ESE,104,11.9,11.9,17,0.00,,CLR,0.00,VWS V14.01,2013-01-10 16:23:00,
2013-01-10 09:28:00,59.5,14.7,17.72,East,100,5.8,5.8,17,0.00,,CLR,0.00,VWS V14.01,2013-01-10 16:28:00,
2013-01-10 09:34:00,59.5,14.7,17.72,East,101,6.3,6.3,17,0.00,,CLR,0.00,VWS V14.01,2013-01-10 16:34:00,
2013-01-10 09:39:00,59.5,14.7,17.72,East,99,8.7,8.7,17,0.00,,CLR,0.00,VWS V14.01,2013-01-10 16:39:00,
2013-01-10 09:45:00,59.7,14.9,17.72,East,92,8.3,8.3,17,0.00,,CLR,0.00,VWS V14.01,2013-01-10 16:45:00,
2013-01-10 09:50:00,59.9,15.0,17.72,ENE,66,7.2,8.1,17,0.00,,CLR,0.00,VWS V14.01,2013-01-10 16:50:00,
2013-01-10 09:56:00,60.1,15.1,17.72,ENE,72,12.8,12.8,17,0.00,,CLR,0.00,VWS V14.01,2013-01-10 16:56:00,
2013-01-10 10:01:00,60.1,15.1,17.72,NE,49,5.8,5.8,17,0.00,,CLR,0.00,VWS V14.01,2013-01-10 17:01:00,
2013-01-10 10:06:00,60.1,15.1,17.72,ENE,73,10.1,10.1,17,0.00,,CLR,0.00,VWS V14.01,2013-01-10 17:06:00,
2013-01-10 10:13:00,59.9,15.0,17.72,NE,44,8.1,10.1,17,0.00,,CLR,0.00,VWS V14.01,2013-01-10 17:13:00,
2013-01-10 10:18:00,59.9,15.0,17.72,East,96,11.4,11.4,17,0.00,,CLR,0.00,VWS V14.01,2013-01-10 17:18:00,
2013-01-10 10:23:00,59.7,14.9,17.72,ENE,60,8.3,8.7,17,0.00,,CLR,0.00,VWS V14.01,2013-01-10 17:23:00,
2013-01-10 10:28:00,59.7,14.9,17.72,East,93,7.6,7.6,17,0.00,,CLR,0.00,VWS V14.01,2013-01-10 17:28:00,
2013-01-10 10:34:00,59.5,14.7,17.72,East,82,12.3,12.3,17,0.00,,CLR,0.00,VWS V14.01,2013-01-10 17:34:00,
2013-01-10 10:39:00,59.4,14.6,17.72,East,82,12.3,12.3,17,0.00,,CLR,0.00,VWS V14.01,2013-01-10 17:39:00,
2013-01-10 10:45:00,59.4,14.6,17.72,East,79,11.9,15.0,17,0.00,,CLR,0.00,VWS V14.01,2013-01-10 17:45:00,
2013-01-10 10:50:00,59.5,14.7,17.72,ESE,104,10.1,10.1,17,0.00,,CLR,0.00,VWS V14.01,2013-01-10 17:50:00,
2013-01-10 10:56:00,59.5,14.7,17.72,East,100,6.3,6.3,17,0.00,,CLR,0.00,VWS V14.01,2013-01-10 17:56:00,
2013-01-10 11:01:00,60.1,17.7,17.72,East,87,5.8,7.6,19,0.00,,CLR,0.00,VWS V14.01,2013-01-10 18:01:00,
2013-01-10 11:06:00,60.1,17.7,17.72,East,90,10.5,10.5,19,0.00,,CLR,0.00,VWS V14.01,2013-01-10 18:06:00,
2013-01-10 11:12:00,60.1,17.7,17.72,ESE,115,8.3,8.3,19,0.00,,CLR,0.00,VWS V14.01,2013-01-10 18:12:00,
2013-01-10 11:18:00,60.1,17.7,17.72,ESE,109,7.6,7.6,19,0.00,,CLR,0.00,VWS V14.01,2013-01-10 18:18:00,
2013-01-10 11:24:00,60.1,17.7,17.72,East,79,12.3,12.3,19,0.00,,CLR,0.00,VWS V14.01,2013-01-10 18:24:00,
2013-01-10 11:30:00,59.5,17.3,17.72,East,84,13.2,13.2,19,0.00,,CLR,0.00,VWS V14.01,2013-01-10 18:30:00,
2013-01-10 11:35:00,59.5,17.3,17.72,ENE,67,10.5,10.5,19,0.00,,CLR,0.00,VWS V14.01,2013-01-10 18:35:00,
2013-01-10 11:41:00,59.2,17.0,17.72,SE,127,8.1,8.1,19,0.00,,CLR,0.00,VWS V14.01,2013-01-10 18:41:00,
2013-01-10 11:46:00,59.0,16.8,17.72,East,90,14.1,14.1,19,0.00,,CLR,0.00,VWS V14.01,2013-01-10 18:46:00,
2013-01-10 11:51:00,58.8,20.1,17.72,ENE,61,8.3,11.0,22,0.00,,CLR,0.00,VWS V14.01,2013-01-10 18:51:00,
2013-01-10 11:57:00,58.8,20.1,17.72,ENE,74,14.5,14.5,22,0.00,,CLR,0.00,VWS V14.01,2013-01-10 18:57:00,
2013-01-10 12:03:00,59.4,20.5,17.72,East,82,15.0,15.0,22,0.00,,CLR,0.00,VWS V14.01,2013-01-10 19:03:00,
2013-01-10 12:09:00,59.4,20.5,17.72,East,85,13.2,13.2,22,0.00,,CLR,0.00,VWS V14.01,2013-01-10 19:09:00,
2013-01-10 12:14:00,59.4,22.6,17.72,NE,45,10.5,10.5,24,0.00,,CLR,0.00,VWS V14.01,2013-01-10 19:14:00,
2013-01-10 12:20:00,59.4,22.6,17.72,East,90,10.1,10.1,24,0.00,,CLR,0.00,VWS V14.01,2013-01-10 19:20:00,
2013-01-10 12:26:00,59.4,22.6,17.72,ENE,77,7.6,8.3,24,0.00,,CLR,0.00,VWS V14.01,2013-01-10 19:26:00,
2013-01-10 12:31:00,59.9,23.0,17.72,ESE,111,8.7,8.7,24,0.00,,CLR,0.00,VWS V14.01,2013-01-10 19:31:00,
2013-01-10 12:36:00,59.9,23.0,17.72,ESE,107,6.3,6.3,24,0.00,,CLR,0.00,VWS V14.01,2013-01-10 19:36:00,
2013-01-10 12:42:00,59.9,23.0,17.72,East,98,8.1,10.1,24,0.00,,CLR,0.00,VWS V14.01,2013-01-10 19:42:00,
2013-01-10 12:47:00,60.3,24.3,17.72,ESE,121,7.6,7.6,25,0.00,,CLR,0.00,VWS V14.01,2013-01-10 19:47:00,
2013-01-10 12:52:00,60.6,24.6,17.72,ESE,121,7.6,7.6,25,0.00,,CLR,0.00,VWS V14.01,2013-01-10 19:52:00,
2013-01-10 12:58:00,61.2,24.1,17.72,ESE,114,9.6,9.6,24,0.00,,CLR,0.00,VWS V14.01,2013-01-10 19:58:00,
2013-01-10 13:03:00,61.2,24.1,17.72,SE,136,11.0,11.0,24,0.00,,CLR,0.00,VWS V14.01,2013-01-10 20:03:00,
2013-01-10 13:08:00,61.7,25.5,17.72,East,99,15.0,15.0,25,0.00,,CLR,0.00,VWS V14.01,2013-01-10 20:08:00,
2013-01-10 13:13:00,61.9,25.7,17.72,SE,138,6.3,6.3,25,0.00,,CLR,0.00,VWS V14.01,2013-01-10 20:13:00,
2013-01-10 13:18:00,62.2,26.0,17.72,ESE,116,11.0,11.0,25,0.00,,CLR,0.00,VWS V14.01,2013-01-10 20:18:00,
2013-01-10 13:23:00,62.2,26.0,17.72,ESE,113,5.8,5.8,25,0.00,,CLR,0.00,VWS V14.01,2013-01-10 20:23:00,
2013-01-10 13:29:00,62.2,26.0,17.72,ESE,119,5.4,10.5,25,0.00,,CLR,0.00,VWS V14.01,2013-01-10 20:29:00,
2013-01-10 13:34:00,62.2,26.0,17.72,SE,138,15.4,15.4,25,0.00,,CLR,0.00,VWS V14.01,2013-01-10 20:34:00,
2013-01-10 13:39:00,61.5,25.4,17.72,ESE,102,8.3,8.3,25,0.00,,CLR,0.00,VWS V14.01,2013-01-10 20:39:00,
2013-01-10 13:45:00,61.3,25.2,17.72,ESE,116,12.8,12.8,25,0.00,,SCT070,0.00,VWS V14.01,2013-01-10 20:45:00,
2013-01-10 13:51:00,61.3,25.2,17.72,ESE,117,5.8,8.7,25,0.00,,SCT070,0.00,VWS V14.01,2013-01-10 20:51:00,
2013-01-10 13:56:00,61.2,25.1,17.72,SE,140,13.6,13.6,25,0.00,,SCT070,0.00,VWS V14.01,2013-01-10 20:56:00,
2013-01-10 14:02:00,61.7,25.5,17.72,ESE,103,12.8,12.8,25,0.00,,BKN075,0.00,VWS V14.01,2013-01-10 21:02:00,
2013-01-10 14:08:00,62.2,26.0,17.72,SE,127,13.2,13.2,25,0.00,,BKN075,0.00,VWS V14.01,2013-01-10 21:08:00,
2013-01-10 14:13:00,62.2,26.0,17.72,ESE,120,13.2,13.2,25,0.00,,BKN075,0.00,VWS V14.01,2013-01-10 21:13:00,
2013-01-10 14:18:00,62.2,26.0,17.72,SE,127,12.8,12.8,25,0.00,,BKN075,0.00,VWS V14.01,2013-01-10 21:18:00,
2013-01-10 14:23:00,62.1,25.9,17.72,SE,137,13.6,13.6,25,0.00,,BKN075,0.00,VWS V14.01,2013-01-10 21:23:00,
2013-01-10 14:29:00,61.9,25.7,17.72,SE,124,10.5,10.5,25,0.00,,BKN075,0.00,VWS V14.01,2013-01-10 21:29:00,
2013-01-10 14:34:00,61.9,25.7,17.72,ESE,116,10.1,13.2,25,0.00,,BKN075,0.00,VWS V14.01,2013-01-10 21:34:00,
2013-01-10 14:40:00,61.7,25.5,17.72,ESE,112,15.4,15.4,25,0.00,,BKN075,0.00,VWS V14.01,2013-01-10 21:40:00,
2013-01-10 14:46:00,61.7,25.5,17.72,ESE,120,11.0,11.0,25,0.00,,BKN075,0.00,VWS V14.01,2013-01-10 21:46:00,
2013-01-10 14:51:00,61.7,25.5,17.72,SE,128,8.3,11.0,25,0.00,,BKN075,0.00,VWS V14.01,2013-01-10 21:51:00,
2013-01-10 14:56:00,61.5,25.4,17.72,ESE,120,11.0,11.0,25,0.00,,BKN075,0.00,VWS V14.01,2013-01-10 21:56:00,
2013-01-10 15:01:00,61.3,26.2,17.72,ESE,113,10.5,10.5,26,0.00,,OVC080,0.00,VWS V14.01,2013-01-10 22:01:00,
2013-01-10 15:07:00,61.3,26.2,17.72,SSE,160,11.0,11.0,26,0.00,,OVC080,0.00,VWS V14.01,2013-01-10 22:07:00,
2013-01-10 15:12:00,61.3,26.2,17.72,SE,142,8.7,8.7,26,0.00,,OVC080,0.00,VWS V14.01,2013-01-10 22:12:00,
2013-01-10 15:17:00,61.3,26.2,17.72,ESE,121,8.7,8.7,26,0.00,,OVC080,0.00,VWS V14.01,2013-01-10 22:17:00,
2013-01-10 15:23:00,61.2,26.0,17.72,ESE,103,5.4,5.4,26,0.00,,OVC080,0.00,VWS V14.01,2013-01-10 22:23:00,
2013-01-10 15:28:00,61.0,25.9,17.72,SE,133,10.5,10.5,26,0.00,,OVC080,0.00,VWS V14.01,2013-01-10 22:28:00,
2013-01-10 15:33:00,60.8,25.7,17.72,SSE,166,8.1,8.1,26,0.00,,OVC080,0.00,VWS V14.01,2013-01-10 22:33:00,
2013-01-10 15:39:00,60.8,26.6,17.72,SW,234,4.9,4.9,27,0.00,,OVC080,0.00,VWS V14.01,2013-01-10 22:39:00,
2013-01-10 15:44:00,59.9,24.0,17.72,WSW,246,6.3,6.3,25,0.00,,OVC080,0.00,VWS V14.01,2013-01-10 22:44:00,
2013-01-10 15:50:00,59.7,23.9,17.72,SW,231,8.7,8.7,25,0.00,,OVC080,0.00,VWS V14.01,2013-01-10 22:50:00,
2013-01-10 15:57:00,59.2,23.4,17.72,WSW,238,6.3,6.3,25,0.00,,OVC080,0.00,VWS V14.01,2013-01-10 22:57:00,
2013-01-10 16:03:00,59.0,22.3,17.72,SW,218,10.1,12.3,24,0.00,,OVC100,0.00,VWS V14.01,2013-01-10 23:03:00,
2013-01-10 16:08:00,58.8,23.1,17.72,SSW,203,12.3,12.3,25,0.00,,OVC100,0.00,VWS V14.01,2013-01-10 23:08:00,
2013-01-10 16:13:00,58.3,21.7,17.72,WSW,243,10.5,10.5,24,0.00,,OVC100,0.00,VWS V14.01,2013-01-10 23:13:00,
2013-01-10 16:18:00,58.3,21.7,17.72,WSW,257,10.5,10.5,24,0.00,,OVC100,0.00,VWS V14.01,2013-01-10 23:18:00,
2013-01-10 16:24:00,57.9,21.4,17.72,SW,223,5.4,7.6,24,0.00,,OVC100,0.00,VWS V14.01,2013-01-10 23:24:00,
2013-01-10 16:31:00,57.7,21.2,17.72,SSW,208,5.8,8.7,24,0.00,,OVC100,0.00,VWS V14.01,2013-01-10 23:31:00,
2013-01-10 16:36:00,57.4,18.9,17.72,SW,234,10.1,10.1,22,0.00,,OVC100,0.00,VWS V14.01,2013-01-10 23:36:00,
2013-01-10 16:42:00,57.2,15.3,17.72,West,259,10.1,10.1,19,0.00,,OVC100,0.00,VWS V14.01,2013-01-10 23:42:00,
2013-01-10 16:47:00,57.0,16.4,17.72,WSW,252,10.1,10.1,20,0.00,,OVC100,0.00,VWS V14.01,2013-01-10 23:47:00,
2013-01-10 16:53:00,56.8,16.2,17.72,WSW,241,10.1,10.1,20,0.00,,OVC100,0.00,VWS V14.01,2013-01-10 23:53:00,
2013-01-10 16:58:00,56.7,16.1,17.72,WSW,247,11.0,12.3,20,0.00,,OVC100,0.00,VWS V14.01,2013-01-10 23:58:00,
2013-01-10 17:03:00,56.7,16.1,17.72,SW,223,9.6,9.6,20,0.00,,BKN090,0.00,VWS V14.01,2013-01-11 00:03:00,
2013-01-10 17:09:00,56.7,16.1,17.72,SW,231,8.1,8.7,20,0.00,,BKN090,0.00,VWS V14.01,2013-01-11 00:09:00,
2013-01-10 17:14:00,56.3,15.8,17.72,SW,233,8.3,8.3,20,0.00,,BKN090,0.00,VWS V14.01,2013-01-11 00:14:00,
2013-01-10 17:20:00,56.1,15.6,17.72,SW,218,11.0,11.0,20,0.00,,BKN090,0.00,VWS V14.01,2013-01-11 00:20:00,
2013-01-10 17:26:00,55.8,15.3,17.72,SW,235,8.1,8.1,20,0.00,,BKN090,0.00,VWS V14.01,2013-01-11 00:26:00,
2013-01-10 17:31:00,55.8,15.3,17.72,SW,218,5.4,5.4,20,0.00,,BKN090,0.00,VWS V14.01,2013-01-11 00:31:00,
2013-01-10 17:38:00,55.4,15.0,17.72,SW,214,9.2,9.2,20,0.00,,BKN090,0.00,VWS V14.01,2013-01-11 00:38:00,
2013-01-10 17:43:00,55.2,14.9,17.72,WSW,251,3.1,5.8,20,0.00,,BKN090,0.00,VWS V14.01,2013-01-11 00:43:00,
2013-01-10 17:49:00,54.9,14.6,17.72,SW,218,8.7,8.7,20,0.00,,BKN090,0.00,VWS V14.01,2013-01-11 00:49:00,
2013-01-10 17:54:00,54.7,12.0,17.72,SW,231,5.4,6.3,18,0.00,,BKN090,0.00,VWS V14.01,2013-01-11 00:54:00,
2013-01-10 17:59:00,54.7,14.4,17.72,SW,226,5.8,5.8,20,0.00,,BKN090,0.00,VWS V14.01,2013-01-11 00:59:00,
2013-01-10 18:06:00,54.5,11.9,17.72,SW,217,5.8,8.1,18,0.00,,BKN100,0.00,VWS V14.01,2013-01-11 01:06:00,
2013-01-10 18:11:00,54.5,11.9,17.72,SW,220,3.1,3.1,18,0.00,,BKN100,0.00,VWS V14.01,2013-01-11 01:11:00,
2013-01-10 18:17:00,54.5,11.9,17.72,SSW,213,6.3,6.3,18,0.00,,BKN100,0.00,VWS V14.01,2013-01-11 01:17:00,
2013-01-10 18:22:00,54.5,11.9,17.72,SW,220,2.7,4.9,18,0.00,,BKN100,0.00,VWS V14.01,2013-01-11 01:22:00,
2013-01-10 18:28:00,54.5,11.9,17.72,SW,216,5.8,5.8,18,0.00,,BKN100,0.00,VWS V14.01,2013-01-11 01:28:00,
2013-01-10 18:34:00,54.3,11.7,17.72,SSW,212,8.1,8.1,18,0.00,,BKN100,0.00,VWS V14.01,2013-01-11 01:34:00,
2013-01-10 18:39:00,54.3,11.7,17.72,SW,222,6.3,6.3,18,0.00,,BKN100,0.00,VWS V14.01,2013-01-11 01:39:00,
2013-01-10 18:44:00,54.3,11.7,17.72,SW,235,4.5,4.5,18,0.00,,BKN100,0.00,VWS V14.01,2013-01-11 01:44:00,
2013-01-10 18:50:00,54.3,11.7,17.72,SW,223,7.6,7.6,18,0.00,,BKN100,0.00,VWS V14.01,2013-01-11 01:50:00,
2013-01-10 18:55:00,54.3,11.7,17.72,SW,223,7.6,7.6,18,0.00,,BKN100,0.00,VWS V14.01,2013-01-11 01:55:00,
2013-01-10 19:02:00,54.3,11.7,17.72,SW,218,11.0,11.0,18,0.00,,BKN120,0.00,VWS V14.01,2013-01-11 02:02:00,
2013-01-10 19:07:00,54.1,11.6,17.72,SSW,198,8.7,8.7,18,0.00,,BKN120,0.00,VWS V14.01,2013-01-11 02:07:00,
2013-01-10 19:12:00,54.0,11.4,17.72,SSW,208,6.3,6.3,18,0.00,,BKN120,0.00,VWS V14.01,2013-01-11 02:12:00,
2013-01-10 19:18:00,53.8,11.3,17.72,SW,230,7.6,7.6,18,0.00,,BKN120,0.00,VWS V14.01,2013-01-11 02:18:00,
2013-01-10 19:23:00,53.6,11.1,17.72,WSW,243,5.8,8.7,18,0.00,,BKN120,0.00,VWS V14.01,2013-01-11 02:23:00,
2013-01-10 19:29:00,53.6,11.1,17.72,WSW,241,5.8,5.8,18,0.00,,BKN120,0.00,VWS V14.01,2013-01-11 02:29:00,
2013-01-10 19:34:00,53.2,10.9,17.72,SW,225,10.5,10.5,18,0.00,,BKN120,0.00,VWS V14.01,2013-01-11 02:34:00,
2013-01-10 19:39:00,53.2,10.9,17.72,WSW,239,8.3,8.3,18,0.00,,BKN120,0.00,VWS V14.01,2013-01-11 02:39:00,
2013-01-10 19:44:00,53.1,10.7,17.72,WSW,253,10.1,10.1,18,0.00,,BKN120,0.00,VWS V14.01,2013-01-11 02:44:00,
2013-01-10 19:50:00,53.1,10.7,17.72,SW,229,4.9,6.7,18,0.00,,BKN120,0.00,VWS V14.01,2013-01-11 02:50:00,
2013-01-10 19:56:00,52.9,10.6,17.72,SW,236,8.1,8.1,18,0.00,,BKN120,0.00,VWS V14.01,2013-01-11 02:56:00,
2013-01-10 20:02:00,52.9,10.6,17.72,SW,225,8.7,8.7,18,0.00,,FEW110,0.00,VWS V14.01,2013-01-11 03:02:00,
2013-01-10 20:07:00,52.9,10.6,17.72,SW,218,8.7,8.7,18,0.00,,FEW110,0.00,VWS V14.01,2013-01-11 03:07:00,
2013-01-10 20:12:00,52.7,10.4,17.72,SW,218,8.7,8.7,18,0.00,,FEW110,0.00,VWS V14.01,2013-01-11 03:12:00,
2013-01-10 20:17:00,52.5,10.2,17.72,WSW,237,10.5,10.5,18,0.00,,FEW110,0.00,VWS V14.01,2013-01-11 03:17:00,
2013-01-10 20:22:00,52.5,10.2,17.72,WSW,249,11.9,11.9,18,0.00,,FEW110,0.00,VWS V14.01,2013-01-11 03:22:00,
2013-01-10 20:28:00,52.3,10.1,17.72,SW,228,12.3,12.3,18,0.00,,FEW110,0.00,VWS V14.01,2013-01-11 03:28:00,
2013-01-10 20:33:00,52.3,10.1,17.72,SW,232,6.3,6.3,18,0.00,,FEW110,0.00,VWS V14.01,2013-01-11 03:33:00,
2013-01-10 20:39:00,52.2,10.0,17.72,WSW,241,6.3,6.3,18,0.00,,FEW110,0.00,VWS V14.01,2013-01-11 03:39:00,
2013-01-10 20:44:00,52.0,9.8,17.72,SW,233,4.9,4.9,18,0.00,,FEW110,0.00,VWS V14.01,2013-01-11 03:44:00,
2013-01-10 20:50:00,52.0,9.8,17.72,SW,226,7.6,7.6,18,0.00,,FEW110,0.00,VWS V14.01,2013-01-11 03:50:00,
2013-01-10 20:55:00,51.8,9.7,17.72,West,263,8.7,8.7,18,0.00,,FEW110,0.00,VWS V14.01,2013-01-11 03:55:00,
2013-01-10 21:01:00,51.6,10.7,17.72,SW,231,8.1,8.1,19,0.00,,CLR,0.00,VWS V14.01,2013-01-11 04:01:00,
2013-01-10 21:06:00,51.4,10.6,17.72,West,262,8.7,8.7,19,0.00,,CLR,0.00,VWS V14.01,2013-01-11 04:06:00,
2013-01-10 21:12:00,51.4,10.6,17.72,SW,223,7.6,7.6,19,0.00,,CLR,0.00,VWS V14.01,2013-01-11 04:12:00,
2013-01-10 21:17:00,51.1,10.3,17.72,WNW,294,7.6,8.1,19,0.00,,CLR,0.00,VWS V14.01,2013-01-11 04:17:00,
2013-01-10 21:22:00,50.9,10.1,17.72,WSW,257,5.8,5.8,19,0.00,,CLR,0.00,VWS V14.01,2013-01-11 04:22:00,
2013-01-10 21:28:00,50.5,9.8,17.72,SSW,208,8.3,8.3,19,0.00,,CLR,0.00,VWS V14.01,2013-01-11 04:28:00,
2013-01-10 21:33:00,50.4,9.7,17.72,West,266,12.8,13.2,19,0.00,,CLR,0.00,VWS V14.01,2013-01-11 04:33:00,
2013-01-10 21:40:00,49.8,9.2,17.72,SW,222,6.3,6.3,19,0.00,,CLR,0.00,VWS V14.01,2013-01-11 04:40:00,
2013-01-10 21:45:00,49.6,9.1,17.72,West,264,12.3,12.3,19,0.00,,CLR,0.00,VWS V14.01,2013-01-11 04:45:00,
2013-01-10 21:50:00,49.5,8.9,17.72,WSW,253,8.1,8.1,19,0.00,,CLR,0.00,VWS V14.01,2013-01-11 04:50:00,
2013-01-10 21:57:00,48.9,8.5,17.72,WSW,250,8.1,8.1,19,0.00,,CLR,0.00,VWS V14.01,2013-01-11 04:57:00,
2013-01-10 22:01:00,48.9,8.5,17.72,WSW,246,7.6,8.3,19,0.00,,CLR,0.00,VWS V14.01,2013-01-11 05:01:00,
2013-01-10 22:04:00,48.7,8.3,17.72,WSW,256,8.1,8.1,19,0.00,,CLR,0.00,VWS V14.01,2013-01-11 05:04:00,
2013-01-10 22:05:00,48.7,8.3,17.72,WSW,256,8.1,8.1,19,0.00,,CLR,0.00,VWS V14.01,2013-01-11 05:05:00,
2013-01-10 22:06:00,48.7,8.3,17.72,SW,229,7.6,8.1,19,0.00,,CLR,0.00,VWS V14.01,2013-01-11 05:06:00,
2013-01-10 22:11:00,48.4,8.0,17.72,WNW,283,6.3,6.3,19,0.00,,CLR,0.00,VWS V14.01,2013-01-11 05:11:00,
2013-01-10 22:17:00,48.4,8.0,17.72,West,271,8.1,8.1,19,0.00,,CLR,0.00,VWS V14.01,2013-01-11 05:17:00,
2013-01-10 22:22:00,48.2,7.9,17.72,SW,225,6.3,6.3,19,0.00,,CLR,0.00,VWS V14.01,2013-01-11 05:22:00,
2013-01-10 22:29:00,48.0,7.7,17.72,SW,234,7.6,7.6,19,0.00,,CLR,0.00,VWS V14.01,2013-01-11 05:29:00,
2013-01-10 22:34:00,48.0,7.7,17.72,WSW,244,7.6,8.1,19,0.00,,CLR,0.00,VWS V14.01,2013-01-11 05:34:00,
2013-01-10 22:40:00,47.5,7.3,17.72,SW,233,4.0,4.0,19,0.00,,CLR,0.00,VWS V14.01,2013-01-11 05:40:00,
2013-01-10 22:46:00,47.3,7.1,17.72,SW,236,4.0,4.0,19,0.00,,CLR,0.00,VWS V14.01,2013-01-11 05:46:00,
2013-01-10 22:51:00,47.1,7.0,17.72,SW,234,6.3,6.3,19,0.00,,CLR,0.00,VWS V14.01,2013-01-11 05:51:00,
2013-01-10 22:56:00,46.9,6.8,17.72,SW,220,6.3,8.3,19,0.00,,CLR,0.00,VWS V14.01,2013-01-11 05:56:00,
2013-01-10 23:02:00,46.9,6.8,17.72,SW,227,2.7,2.7,19,0.00,,CLR,0.00,VWS V14.01,2013-01-11 06:02:00,
2013-01-10 23:07:00,46.6,6.5,17.72,SW,227,2.7,2.7,19,0.00,,CLR,0.00,VWS V14.01,2013-01-11 06:07:00,
2013-01-10 23:14:00,46.4,6.4,17.72,WNW,298,5.8,7.6,19,0.00,,CLR,0.00,VWS V14.01,2013-01-11 06:14:00,
2013-01-10 23:19:00,46.4,6.4,17.72,NW,304,4.9,4.9,19,0.00,,CLR,0.00,VWS V14.01,2013-01-11 06:19:00,
2013-01-10 23:24:00,46.4,6.4,17.72,West,277,4.0,4.0,19,0.00,,CLR,0.00,VWS V14.01,2013-01-11 06:24:00,
2013-01-10 23:29:00,46.2,7.4,17.72,West,277,2.2,2.2,20,0.00,,CLR,0.00,VWS V14.01,2013-01-11 06:29:00,
2013-01-10 23:34:00,46.2,7.4,17.72,WSW,240,6.3,6.3,20,0.00,,CLR,0.00,VWS V14.01,2013-01-11 06:34:00,
2013-01-10 23:39:00,45.9,7.1,17.72,SW,226,3.6,3.6,20,0.00,,CLR,0.00,VWS V14.01,2013-01-11 06:39:00,
2013-01-10 23:45:00,45.9,7.1,17.72,SSW,207,3.6,3.6,20,0.00,,CLR,0.00,VWS V14.01,2013-01-11 06:45:00,
2013-01-10 23:50:00,45.9,7.1,17.72,SSW,210,8.1,8.1,20,0.00,,CLR,0.00,VWS V14.01,2013-01-11 06:50:00,
2013-01-10 23:56:00,45.9,7.1,17.72,SSW,206,3.6,3.6,20,0.00,,CLR,0.00,VWS V14.01,2013-01-11 06:56:00,